Time;durP1;ratioP1;P1;durP2;ratioP2;P2;SDS_P1;SDS_P2;PMS_P1;PMS_P2;Temp;Humidity;BMP_temperature;BMP_pressure;BME280_temperature;BME280_humidity;BME280_pressure;Samples;Min_cycle;Max_cycle;Signal;HPM_P1;HPM_P2
2023/03/27 00:00:52;;;;;;;;;;;5.50;90.70;;;;;;5051308;28;19992;-74
2023/03/27 00:03:18;;;;;;;;;;;5.40;90.70;;;;;;5050969;28;19968;-74
2023/03/27 00:05:44;;;;;;;;;;;5.30;90.70;;;;;;5051057;28;20268;-74
2023/03/27 00:08:11;;;;;;;;;;;5.30;90.80;;;;;;5051073;28;19908;-74
2023/03/27 00:10:37;;;;;;;;;;;5.30;90.80;;;;;;5051505;28;19905;-74
2023/03/27 00:13:03;;;;;;;;;;;5.30;90.80;;;;;;5051164;28;20330;-74
2023/03/27 00:15:29;;;;;;;;;;;5.20;90.80;;;;;;5050985;28;20038;-74
2023/03/27 00:17:57;;;;;;;;;;;5.20;90.70;;;;;;5033183;28;19947;-74
2023/03/27 00:20:23;;;;;;;;;;;5.20;90.70;;;;;;5051019;28;19909;-74
2023/03/27 00:22:55;;;;;;;;;;;5.20;90.70;;;;;;5050897;28;20018;-74
2023/03/27 00:25:25;;;;;;;;;;;5.10;90.70;;;;;;5050982;28;20305;-74
2023/03/27 00:27:51;;;;;;;;;;;5.20;90.70;;;;;;5050264;28;19993;-74
2023/03/27 00:30:17;;;;;;;;;;;5.10;90.60;;;;;;5032817;28;19960;-74
2023/03/27 00:32:43;;;;;;;;;;;5.20;90.70;;;;;;5049333;28;19913;-74
2023/03/27 00:35:08;;;;;;;;;;;5.10;90.70;;;;;;5050736;28;19932;-74
2023/03/27 00:37:35;;;;;;;;;;;5.10;90.70;;;;;;5050609;28;20011;-74
2023/03/27 00:40:01;;;;;;;;;;;5.10;90.70;;;;;;5050680;28;20383;-74
2023/03/27 00:42:26;;;;;;;;;;;5.20;90.90;;;;;;5050580;28;19913;-74
2023/03/27 00:44:52;;;;;;;;;;;5.10;90.60;;;;;;5050401;28;19912;-74
2023/03/27 00:47:38;;;;;;;;;;;5.10;90.60;;;;;;5050341;28;20288;-74
2023/03/27 00:50:09;;;;;;;;;;;5.10;90.60;;;;;;5048577;28;20384;-74
2023/03/27 00:52:36;;;;;;;;;;;5.10;90.60;;;;;;5048756;28;19914;-72
2023/03/27 00:55:03;;;;;;;;;;;5.10;90.60;;;;;;5050376;28;19909;-74
2023/03/27 00:57:29;;;;;;;;;;;5.10;90.60;;;;;;5050030;28;20289;-74
2023/03/27 00:59:55;;;;;;;;;;;5.10;90.60;;;;;;5048959;28;19912;-74
2023/03/27 01:02:21;;;;;;;;;;;5.00;90.50;;;;;;5050101;28;20333;-75
2023/03/27 01:04:47;;;;;;;;;;;5.00;90.50;;;;;;5050137;28;19947;-74
2023/03/27 01:07:14;;;;;;;;;;;4.90;90.60;;;;;;5049990;28;20369;-74
2023/03/27 01:09:40;;;;;;;;;;;4.80;90.50;;;;;;5049950;28;19951;-74
2023/03/27 01:12:09;;;;;;;;;;;4.70;90.60;;;;;;5048570;28;19913;-74
2023/03/27 01:14:54;;;;;;;;;;;4.60;90.60;;;;;;5048744;28;19933;-74
2023/03/27 01:17:19;;;;;;;;;;;4.60;90.70;;;;;;5049876;28;19916;-74
2023/03/27 01:20:03;;;;;;;;;;;4.60;90.60;;;;;;5049823;28;19905;-74
2023/03/27 01:22:29;;;;;;;;;;;4.50;90.60;;;;;;5049751;28;20556;-74
2023/03/27 01:25:13;;;;;;;;;;;4.50;90.60;;;;;;5049965;28;20345;-74
2023/03/27 01:28:01;;;;;;;;;;;4.50;90.60;;;;;;5049719;28;19908;-74
2023/03/27 01:30:33;;;;;;;;;;;4.40;90.60;;;;;;5049538;28;19915;-74
2023/03/27 01:33:17;;;;;;;;;;;4.40;90.50;;;;;;5049535;28;19915;-74
2023/03/27 01:35:52;;;;;;;;;;;4.30;90.50;;;;;;5049460;28;19954;-74
2023/03/27 01:38:20;;;;;;;;;;;4.30;90.60;;;;;;5048645;28;19958;-75
2023/03/27 01:41:06;;;;;;;;;;;4.30;90.60;;;;;;5048155;28;19908;-74
2023/03/27 01:43:53;;;;;;;;;;;4.40;90.60;;;;;;5048405;28;19931;-74
2023/03/27 01:46:24;;;;;;;;;;;4.40;90.50;;;;;;5048057;28;19924;-74
2023/03/27 01:48:55;;;;;;;;;;;4.40;90.40;;;;;;5049257;28;19908;-74
2023/03/27 01:51:24;;;;;;;;;;;4.40;90.30;;;;;;5049155;28;20000;-74
2023/03/27 01:53:51;;;;;;;;;;;4.30;90.30;;;;;;5049268;28;19955;-74
2023/03/27 01:56:25;;;;;;;;;;;4.30;90.30;;;;;;5049067;28;19964;-74
2023/03/27 01:58:53;;;;;;;;;;;4.20;90.30;;;;;;5049127;28;19924;-74
2023/03/27 02:01:21;;;;;;;;;;;4.20;90.30;;;;;;5049016;28;19909;-74
2023/03/27 02:03:49;;;;;;;;;;;4.20;90.30;;;;;;5048749;28;19939;-74
2023/03/27 02:06:22;;;;;;;;;;;4.10;90.30;;;;;;5049000;28;19923;-74
2023/03/27 02:08:52;;;;;;;;;;;4.10;90.30;;;;;;5048929;28;19904;-74
2023/03/27 02:11:17;;;;;;;;;;;4.10;90.30;;;;;;5047555;28;19904;-74
2023/03/27 02:13:46;;;;;;;;;;;4.10;90.30;;;;;;5048803;28;19912;-74
2023/03/27 02:16:14;;;;;;;;;;;4.10;90.30;;;;;;5048720;28;19916;-74
2023/03/27 02:18:46;;;;;;;;;;;4.10;90.20;;;;;;5048691;28;19905;-74
2023/03/27 02:21:13;;;;;;;;;;;4.10;90.20;;;;;;5049139;28;19927;-74
2023/03/27 02:23:39;;;;;;;;;;;4.00;90.20;;;;;;5048692;28;19909;-75
2023/03/27 02:26:04;;;;;;;;;;;3.90;90.30;;;;;;5048488;28;19916;-74
2023/03/27 02:28:30;;;;;;;;;;;3.90;90.30;;;;;;5048583;28;19912;-74
2023/03/27 02:31:00;;;;;;;;;;;3.80;90.30;;;;;;5047265;28;19931;-74
2023/03/27 02:33:38;;;;;;;;;;;3.70;90.40;;;;;;5047198;28;19908;-74
2023/03/27 02:36:04;;;;;;;;;;;3.70;90.40;;;;;;5048463;28;19913;-75
2023/03/27 02:38:38;;;;;;;;;;;3.60;90.40;;;;;;5048355;28;19916;-74
2023/03/27 02:41:10;;;;;;;;;;;3.70;90.40;;;;;;5047213;28;20364;-74
2023/03/27 02:43:44;;;;;;;;;;;3.60;90.40;;;;;;5048577;28;20085;-75
2023/03/27 02:46:23;;;;;;;;;;;3.50;90.40;;;;;;5048349;28;19911;-74
2023/03/27 02:48:50;;;;;;;;;;;3.50;90.50;;;;;;5048289;28;19999;-74
2023/03/27 02:51:31;;;;;;;;;;;3.50;90.50;;;;;;5048008;28;20349;-74
2023/03/27 02:54:08;;;;;;;;;;;3.40;90.50;;;;;;5048291;28;20379;-75
2023/03/27 02:56:38;;;;;;;;;;;3.40;90.50;;;;;;5048083;28;19958;-74
2023/03/27 02:59:08;;;;;;;;;;;3.40;90.40;;;;;;5048238;28;19909;-74
2023/03/27 03:01:34;;;;;;;;;;;3.40;90.40;;;;;;5048174;28;19953;-74
2023/03/27 03:04:02;;;;;;;;;;;3.30;90.40;;;;;;5048138;28;19927;-74
2023/03/27 03:06:30;;;;;;;;;;;3.20;90.50;;;;;;5048073;28;19904;-74
2023/03/27 03:09:05;;;;;;;;;;;3.20;90.60;;;;;;5048107;28;19916;-74
2023/03/27 03:11:35;;;;;;;;;;;3.20;90.60;;;;;;5048310;28;20373;-74
2023/03/27 03:14:00;;;;;;;;;;;3.20;90.60;;;;;;5046627;28;19927;-74
2023/03/27 03:16:27;;;;;;;;;;;3.30;90.60;;;;;;5047961;28;19916;-74
2023/03/27 03:18:52;;;;;;;;;;;3.30;90.60;;;;;;5047936;28;19904;-74
2023/03/27 03:21:18;;;;;;;;;;;3.40;90.60;;;;;;5047971;28;19916;-74
2023/03/27 03:23:44;;;;;;;;;;;3.40;90.50;;;;;;5047885;28;19909;-74
2023/03/27 03:26:11;;;;;;;;;;;3.40;90.40;;;;;;5046536;28;20003;-74
2023/03/27 03:28:36;;;;;;;;;;;3.40;90.40;;;;;;5047866;28;19916;-74
2023/03/27 03:31:03;;;;;;;;;;;3.40;90.40;;;;;;5047911;28;19909;-74
2023/03/27 03:33:29;;;;;;;;;;;3.40;90.40;;;;;;5047805;28;19920;-74
2023/03/27 03:35:59;;;;;;;;;;;3.40;90.30;;;;;;5046620;28;19913;-74
2023/03/27 03:38:25;;;;;;;;;;;3.30;90.30;;;;;;5046622;28;19908;-74
2023/03/27 03:40:51;;;;;;;;;;;3.30;90.40;;;;;;5046662;28;19916;-74
2023/03/27 03:43:18;;;;;;;;;;;3.30;90.40;;;;;;5047758;28;19927;-74
2023/03/27 03:45:43;;;;;;;;;;;3.20;90.40;;;;;;5047680;28;19944;-74
2023/03/27 03:48:09;;;;;;;;;;;3.30;90.50;;;;;;5046377;28;20337;-74
2023/03/27 03:50:34;;;;;;;;;;;3.20;90.40;;;;;;5046585;28;20342;-74
2023/03/27 03:53:00;;;;;;;;;;;3.20;90.40;;;;;;5046449;28;20022;-74
2023/03/27 03:55:25;;;;;;;;;;;3.10;90.40;;;;;;5047628;28;19948;-74
2023/03/27 03:57:51;;;;;;;;;;;3.10;90.40;;;;;;5029596;28;19916;-74
2023/03/27 04:00:17;;;;;;;;;;;3.20;90.40;;;;;;5047551;28;20348;-74
2023/03/27 04:02:43;;;;;;;;;;;3.20;90.30;;;;;;5049562;28;19931;-74
2023/03/27 04:05:09;;;;;;;;;;;3.20;90.30;;;;;;5050098;28;19908;-75
2023/03/27 04:07:34;;;;;;;;;;;3.20;90.20;;;;;;5051258;28;19970;-74
2023/03/27 04:10:00;;;;;;;;;;;3.20;90.20;;;;;;5051168;28;19905;-75
2023/03/27 04:12:26;;;;;;;;;;;3.20;90.10;;;;;;5051065;28;19904;-74
2023/03/27 04:14:52;;;;;;;;;;;3.20;90.10;;;;;;5051132;28;20384;-74
2023/03/27 04:17:19;;;;;;;;;;;3.20;90.10;;;;;;5051111;28;19909;-74
2023/03/27 04:19:45;;;;;;;;;;;3.20;90.10;;;;;;5049789;28;20027;-74
2023/03/27 04:22:11;;;;;;;;;;;3.10;90.10;;;;;;5050961;28;19995;-74
2023/03/27 04:24:37;;;;;;;;;;;3.10;90.10;;;;;;5049769;28;19996;-74
2023/03/27 04:27:04;;;;;;;;;;;3.00;90.10;;;;;;5051120;28;20455;-71
2023/03/27 04:29:30;;;;;;;;;;;3.00;90.10;;;;;;5049646;28;19904;-74
2023/03/27 04:31:56;;;;;;;;;;;3.00;90.10;;;;;;5050669;28;19978;-74
2023/03/27 04:34:23;;;;;;;;;;;3.00;90.10;;;;;;5049283;28;19915;-74
2023/03/27 04:36:49;;;;;;;;;;;3.00;90.00;;;;;;5050597;28;20307;-74
2023/03/27 04:39:16;;;;;;;;;;;2.90;90.00;;;;;;5050651;28;19908;-74
2023/03/27 04:41:47;;;;;;;;;;;2.80;90.10;;;;;;5050693;28;19905;-75
2023/03/27 04:44:13;;;;;;;;;;;2.80;90.20;;;;;;5050614;28;19912;-75
2023/03/27 04:46:40;;;;;;;;;;;2.70;90.10;;;;;;5050378;28;20261;-75
2023/03/27 04:49:05;;;;;;;;;;;2.60;90.20;;;;;;5050166;28;19944;-74
2023/03/27 04:51:31;;;;;;;;;;;2.60;90.30;;;;;;5032252;28;20377;-74
2023/03/27 04:53:56;;;;;;;;;;;2.50;90.30;;;;;;5032409;28;20277;-74
2023/03/27 04:56:22;;;;;;;;;;;2.50;90.30;;;;;;5048999;28;19964;-75
2023/03/27 04:58:48;;;;;;;;;;;2.40;90.30;;;;;;5050335;28;19905;-75
2023/03/27 05:01:14;;;;;;;;;;;2.40;90.30;;;;;;5048768;28;19916;-75
2023/03/27 05:03:39;;;;;;;;;;;2.30;90.40;;;;;;5050074;28;19921;-75
2023/03/27 05:06:07;;;;;;;;;;;2.20;90.40;;;;;;5050251;28;20331;-74
2023/03/27 05:08:32;;;;;;;;;;;2.20;90.50;;;;;;5050150;28;19904;-74
2023/03/27 05:10:58;;;;;;;;;;;2.30;90.50;;;;;;5048944;28;20414;-73
2023/03/27 05:13:24;;;;;;;;;;;2.30;90.40;;;;;;5049678;28;19979;-73
2023/03/27 05:15:49;;;;;;;;;;;2.30;90.30;;;;;;5049834;28;19956;-74
2023/03/27 05:18:15;;;;;;;;;;;2.30;90.30;;;;;;5049789;28;19923;-73
2023/03/27 05:20:42;;;;;;;;;;;2.20;90.30;;;;;;5048813;28;20309;-74
2023/03/27 05:23:08;;;;;;;;;;;2.20;90.30;;;;;;5049727;28;20054;-74
2023/03/27 05:25:33;;;;;;;;;;;2.10;90.40;;;;;;5049821;28;19944;-74
2023/03/27 05:27:59;;;;;;;;;;;2.10;90.40;;;;;;5048304;28;19919;-74
2023/03/27 05:30:25;;;;;;;;;;;2.10;90.40;;;;;;5049664;28;19912;-74
2023/03/27 05:32:52;;;;;;;;;;;2.10;90.40;;;;;;5047672;28;19909;-74
2023/03/27 05:35:18;;;;;;;;;;;2.10;90.40;;;;;;5049588;28;19955;-74
2023/03/27 05:37:46;;;;;;;;;;;2.10;90.30;;;;;;5049431;28;19912;-74
2023/03/27 05:40:14;;;;;;;;;;;2.10;90.30;;;;;;5048198;28;19940;-73
2023/03/27 05:42:44;;;;;;;;;;;2.10;90.30;;;;;;5049636;28;19916;-73
2023/03/27 05:45:10;;;;;;;;;;;2.10;90.50;;;;;;5049217;28;19905;-74
2023/03/27 05:47:45;;;;;;;;;;;2.10;90.30;;;;;;5048099;28;19948;-74
2023/03/27 05:50:11;;;;;;;;;;;2.10;90.30;;;;;;5049429;28;20381;-73
2023/03/27 05:52:37;;;;;;;;;;;2.20;90.30;;;;;;5049133;28;19948;-74
2023/03/27 05:55:03;;;;;;;;;;;2.20;90.30;;;;;;5049145;28;19939;-74
2023/03/27 05:57:29;;;;;;;;;;;2.20;90.30;;;;;;5047499;28;19916;-74
2023/03/27 05:59:55;;;;;;;;;;;2.20;90.20;;;;;;5048928;28;19924;-74
2023/03/27 06:02:22;;;;;;;;;;;2.20;90.20;;;;;;5048605;28;19943;-74
2023/03/27 06:04:47;;;;;;;;;;;2.20;90.20;;;;;;5049000;28;19913;-74
2023/03/27 06:07:13;;;;;;;;;;;2.20;90.20;;;;;;5047463;28;20284;-74
2023/03/27 06:09:39;;;;;;;;;;;2.20;90.20;;;;;;5048811;28;19920;-74
2023/03/27 06:12:05;;;;;;;;;;;2.20;90.20;;;;;;5047321;28;19909;-74
2023/03/27 06:14:30;;;;;;;;;;;2.20;90.20;;;;;;5048570;28;19908;-74
2023/03/27 06:16:56;;;;;;;;;;;2.20;90.20;;;;;;5048531;28;19913;-74
2023/03/27 06:19:23;;;;;;;;;;;2.20;90.20;;;;;;5048657;28;19916;-74
2023/03/27 06:21:49;;;;;;;;;;;2.20;90.20;;;;;;5048671;28;20274;-74
2023/03/27 06:24:15;;;;;;;;;;;2.20;90.20;;;;;;5046592;28;19999;-74
2023/03/27 06:26:41;;;;;;;;;;;2.20;90.10;;;;;;5047563;28;20042;-74
2023/03/27 06:29:07;;;;;;;;;;;2.10;90.20;;;;;;5046958;28;20374;-74
2023/03/27 06:31:34;;;;;;;;;;;2.10;90.20;;;;;;5048475;28;19921;-74
2023/03/27 06:34:00;;;;;;;;;;;2.10;90.30;;;;;;5048350;28;19912;-74
2023/03/27 06:36:26;;;;;;;;;;;2.10;90.40;;;;;;5048158;28;19913;-74
2023/03/27 06:38:53;;;;;;;;;;;2.10;90.40;;;;;;5046763;28;19915;-74
2023/03/27 06:41:19;;;;;;;;;;;2.10;90.40;;;;;;5048296;28;19924;-74
2023/03/27 06:43:45;;;;;;;;;;;2.20;90.50;;;;;;5048151;28;19904;-74
2023/03/27 06:46:11;;;;;;;;;;;2.20;90.40;;;;;;5048063;28;19908;-74
2023/03/27 06:48:38;;;;;;;;;;;2.30;90.40;;;;;;5048360;28;19913;-74
2023/03/27 06:51:03;;;;;;;;;;;2.40;90.40;;;;;;5046999;28;20323;-74
2023/03/27 06:53:29;;;;;;;;;;;2.50;90.40;;;;;;5046539;28;19909;-74
2023/03/27 06:55:55;;;;;;;;;;;2.50;90.30;;;;;;5047771;28;19916;-75
2023/03/27 06:58:21;;;;;;;;;;;2.60;90.30;;;;;;5047597;28;19916;-72
2023/03/27 07:00:48;;;;;;;;;;;2.70;90.30;;;;;;5046555;28;19912;-74
2023/03/27 07:03:14;;;;;;;;;;;2.80;90.30;;;;;;5047628;28;20027;-74
2023/03/27 07:05:40;;;;;;;;;;;2.80;90.30;;;;;;5047829;28;19915;-74
2023/03/27 07:08:07;;;;;;;;;;;2.90;90.30;;;;;;5047944;28;19995;-74
2023/03/27 07:10:32;;;;;;;;;;;3.00;90.30;;;;;;5047654;28;19905;-74
2023/03/27 07:12:58;;;;;;;;;;;3.00;90.30;;;;;;5047669;28;19911;-74
2023/03/27 07:15:24;;;;;;;;;;;3.20;90.30;;;;;;5046450;28;19948;-74
2023/03/27 07:17:57;;;;;;;;;;;3.20;90.30;;;;;;5046503;28;19913;-74
2023/03/27 07:20:24;;;;;;;;;;;3.30;90.30;;;;;;5047506;28;19919;-74
2023/03/27 07:22:50;;;;;;;;;;;3.30;90.40;;;;;;5047636;28;19932;-74
2023/03/27 07:25:15;;;;;;;;;;;3.40;90.40;;;;;;5047505;28;19909;-74
2023/03/27 07:27:41;;;;;;;;;;;3.50;90.40;;;;;;5047596;28;19936;-74
2023/03/27 07:30:07;;;;;;;;;;;3.60;90.40;;;;;;5047679;28;19913;-74
2023/03/27 07:32:34;;;;;;;;;;;3.70;90.40;;;;;;5046219;28;20033;-74
2023/03/27 07:34:59;;;;;;;;;;;3.80;90.50;;;;;;5047566;28;19916;-74
2023/03/27 07:37:26;;;;;;;;;;;3.90;90.50;;;;;;5047997;28;20334;-74
2023/03/27 07:39:51;;;;;;;;;;;4.00;90.70;;;;;;5051510;28;19909;-75
2023/03/27 07:42:18;;;;;;;;;;;4.10;90.80;;;;;;5051037;28;19955;-74
2023/03/27 07:44:43;;;;;;;;;;;4.40;91.00;;;;;;5051121;28;19920;-74
2023/03/27 07:47:09;;;;;;;;;;;4.70;91.00;;;;;;5051322;28;19996;-74
2023/03/27 07:49:35;;;;;;;;;;;5.10;91.30;;;;;;5049916;28;19909;-74
2023/03/27 07:52:01;;;;;;;;;;;5.80;91.70;;;;;;5049563;28;19908;-74
2023/03/27 07:54:28;;;;;;;;;;;6.60;92.10;;;;;;5050814;28;19970;-74
2023/03/27 07:56:53;;;;;;;;;;;7.80;92.50;;;;;;5051096;28;20007;-73
2023/03/27 07:59:19;;;;;;;;;;;8.80;92.40;;;;;;5050809;28;20399;-74
2023/03/27 08:01:45;;;;;;;;;;;9.40;91.90;;;;;;5050776;28;19908;-74
2023/03/27 08:04:10;;;;;;;;;;;9.80;91.70;;;;;;5048904;28;19974;-74
2023/03/27 08:06:36;;;;;;;;;;;9.90;91.60;;;;;;5050333;28;20016;-75
2023/03/27 08:09:04;;;;;;;;;;;9.90;91.50;;;;;;5050472;28;20419;-74
2023/03/27 08:11:29;;;;;;;;;;;10.00;91.70;;;;;;5049237;28;19905;-73
2023/03/27 08:13:55;;;;;;;;;;;10.20;91.90;;;;;;5050235;28;20394;-74
2023/03/27 08:16:23;;;;;;;;;;;10.60;92.10;;;;;;5050393;28;20380;-74
2023/03/27 08:18:49;;;;;;;;;;;11.00;92.00;;;;;;5050804;28;19905;-74
2023/03/27 08:21:14;;;;;;;;;;;11.10;91.70;;;;;;5050694;28;19915;-74
2023/03/27 08:23:41;;;;;;;;;;;11.00;91.50;;;;;;5032164;28;19916;-74
2023/03/27 08:26:07;;;;;;;;;;;10.80;91.50;;;;;;5050505;28;19908;-74
2023/03/27 08:28:34;;;;;;;;;;;10.50;91.60;;;;;;5048891;28;20327;-74
2023/03/27 08:31:01;;;;;;;;;;;10.30;91.70;;;;;;5050333;28;19904;-74
2023/03/27 08:33:26;;;;;;;;;;;10.20;91.80;;;;;;5050471;28;19913;-73
2023/03/27 08:35:52;;;;;;;;;;;10.10;92.00;;;;;;5049255;28;19915;-74
2023/03/27 08:38:18;;;;;;;;;;;10.10;91.90;;;;;;5049946;28;19905;-74
2023/03/27 08:40:47;;;;;;;;;;;10.00;91.90;;;;;;5051195;28;19905;-74
2023/03/27 08:43:26;;;;;;;;;;;10.00;91.90;;;;;;5050070;28;19923;-74
2023/03/27 08:45:54;;;;;;;;;;;10.00;91.90;;;;;;5049836;28;19912;-74
2023/03/27 08:48:23;;;;;;;;;;;10.10;91.90;;;;;;5048052;28;20416;-74
2023/03/27 08:51:09;;;;;;;;;;;10.30;92.00;;;;;;5049423;28;19920;-73
2023/03/27 08:53:44;;;;;;;;;;;10.70;92.20;;;;;;5050122;28;20325;-73
2023/03/27 08:56:14;;;;;;;;;;;11.60;92.80;;;;;;5051183;28;20014;-74
2023/03/27 08:58:40;;;;;;;;;;;12.40;92.60;;;;;;5050539;28;19904;-73
2023/03/27 09:01:15;;;;;;;;;;;12.90;92.40;;;;;;5050808;28;20022;-73
2023/03/27 09:03:46;;;;;;;;;;;13.40;92.40;;;;;;5049240;28;19992;-73
2023/03/27 09:06:25;;;;;;;;;;;14.20;92.40;;;;;;5049328;28;19958;-74
2023/03/27 09:09:20;;;;;;;;;;;14.60;92.20;;;;;;5050771;28;19936;-77
2023/03/27 09:11:46;;;;;;;;;;;14.60;92.00;;;;;;5047962;28;19947;-76
2023/03/27 09:14:16;;;;;;;;;;;14.60;92.10;;;;;;5049051;28;20326;-76
2023/03/27 09:16:48;;;;;;;;;;;14.20;92.00;;;;;;5046735;28;19950;-76
2023/03/27 09:19:19;;;;;;;;;;;13.90;92.70;;;;;;5046685;28;19908;-76
2023/03/27 09:21:48;;;;;;;;;;;14.10;93.10;;;;;;5048206;28;19911;-76
2023/03/27 09:24:28;;;;;;;;;;;14.70;93.40;;;;;;5045896;28;20011;-76
2023/03/27 09:26:54;;;;;;;;;;;15.10;93.20;;;;;;5046947;28;19998;-76
2023/03/27 09:29:21;;;;;;;;;;;15.20;92.90;;;;;;5048741;28;19915;-76
2023/03/27 09:31:47;;;;;;;;;;;15.30;93.00;;;;;;5049539;28;19955;-76
2023/03/27 09:34:16;;;;;;;;;;;15.60;93.50;;;;;;5050162;28;20233;-75
2023/03/27 09:36:43;;;;;;;;;;;16.60;94.20;;;;;;5048576;28;19954;-76
2023/03/27 09:39:14;;;;;;;;;;;17.20;93.40;;;;;;5050563;28;20307;-76
2023/03/27 09:41:42;;;;;;;;;;;17.80;93.60;;;;;;5048730;28;20391;-76
2023/03/27 09:44:10;;;;;;;;;;;18.40;93.50;;;;;;5050157;28;20340;-76
2023/03/27 09:46:37;;;;;;;;;;;18.40;92.90;;;;;;5050105;28;19911;-76
2023/03/27 09:49:13;;;;;;;;;;;18.80;93.40;;;;;;5049444;28;20303;-77
2023/03/27 09:51:40;;;;;;;;;;;19.40;93.50;;;;;;5043276;28;20016;-76
2023/03/27 09:54:07;;;;;;;;;;;19.70;93.10;;;;;;5036484;28;20015;-76
2023/03/27 09:56:52;;;;;;;;;;;19.70;93.00;;;;;;5035424;28;20007;-76
2023/03/27 09:59:20;;;;;;;;;;;19.90;93.50;;;;;;5041368;28;19974;-78
2023/03/27 10:01:47;;;;;;;;;;;20.60;93.60;;;;;;5042431;28;19912;-75
2023/03/27 10:04:15;;;;;;;;;;;21.20;93.40;;;;;;5050226;28;20003;-70
2023/03/27 10:06:43;;;;;;;;;;;21.30;93.00;;;;;;5049544;28;19951;-75
2023/03/27 10:09:21;;;;;;;;;;;20.90;92.90;;;;;;5049641;28;19916;-74
2023/03/27 10:11:48;;;;;;;;;;;20.50;93.40;;;;;;5049741;28;19912;-76
2023/03/27 10:14:16;;;;;;;;;;;20.70;93.80;;;;;;5049298;28;20349;-74
2023/03/27 10:16:42;;;;;;;;;;;21.10;93.70;;;;;;5049340;28;20379;-74
2023/03/27 10:19:19;;;;;;;;;;;21.20;93.40;;;;;;5049228;28;19904;-75
2023/03/27 10:21:44;;;;;;;;;;;21.10;93.50;;;;;;5049507;28;19905;-75
2023/03/27 10:24:16;;;;;;;;;;;21.30;93.40;;;;;;5031769;28;19975;-76
2023/03/27 10:26:42;;;;;;;;;;;21.30;93.00;;;;;;5048967;28;19911;-74
2023/03/27 10:29:19;;;;;;;;;;;21.00;92.60;;;;;;5048820;28;19909;-71
2023/03/27 10:31:49;;;;;;;;;;;20.50;92.50;;;;;;5048905;28;20280;-72
2023/03/27 10:34:27;;;;;;;;;;;19.70;92.30;;;;;;5048647;28;20000;-70
2023/03/27 10:36:54;;;;;;;;;;;18.90;92.30;;;;;;5048566;28;19916;-69
2023/03/27 10:39:23;;;;;;;;;;;18.20;92.60;;;;;;5048546;28;19915;-73
2023/03/27 10:41:48;;;;;;;;;;;17.80;93.00;;;;;;5048746;28;20012;-77
2023/03/27 10:44:16;;;;;;;;;;;17.50;93.20;;;;;;5048866;28;19909;-73
2023/03/27 10:46:42;;;;;;;;;;;17.50;93.20;;;;;;5049284;28;19904;-76
2023/03/27 10:49:14;;;;;;;;;;;17.40;92.80;;;;;;5047570;28;19931;-73
2023/03/27 10:51:47;;;;;;;;;;;17.00;92.60;;;;;;5048551;28;19905;-72
2023/03/27 10:54:16;;;;;;;;;;;16.70;92.60;;;;;;5048507;28;19919;-72
2023/03/27 10:56:51;;;;;;;;;;;16.60;92.90;;;;;;5046675;28;20297;-72
2023/03/27 10:59:20;;;;;;;;;;;16.70;93.00;;;;;;5047202;28;20315;-74
2023/03/27 11:01:51;;;;;;;;;;;16.80;92.70;;;;;;5048418;28;20482;-72
2023/03/27 11:04:23;;;;;;;;;;;16.60;92.60;;;;;;5047991;28;19916;-74
2023/03/27 11:06:51;;;;;;;;;;;16.40;92.60;;;;;;5047005;28;19905;-73
2023/03/27 11:09:22;;;;;;;;;;;16.10;92.60;;;;;;5048649;28;19912;-74
2023/03/27 11:11:59;;;;;;;;;;;15.90;93.00;;;;;;5051592;28;19938;-74
2023/03/27 11:14:27;;;;;;;;;;;15.80;93.10;;;;;;5050668;28;19904;-73
2023/03/27 11:16:59;;;;;;;;;;;16.00;93.40;;;;;;5051530;28;19908;-73
2023/03/27 11:19:24;;;;;;;;;;;16.30;93.30;;;;;;5051650;28;19904;-73
2023/03/27 11:21:52;;;;;;;;;;;16.60;93.00;;;;;;5051435;28;20337;-75
2023/03/27 11:24:31;;;;;;;;;;;16.70;92.90;;;;;;5051748;28;19983;-73
2023/03/27 11:27:15;;;;;;;;;;;16.80;92.90;;;;;;5051958;28;20257;-72
2023/03/27 11:29:53;;;;;;;;;;;17.00;93.00;;;;;;5052147;28;20407;-74
2023/03/27 11:32:42;;;;;;;;;;;17.60;93.10;;;;;;5051036;28;19905;-78
2023/03/27 11:35:12;;;;;;;;;;;18.00;93.00;;;;;;5052698;28;19998;-78
2023/03/27 11:37:41;;;;;;;;;;;18.00;92.70;;;;;;5050980;28;20372;-76
2023/03/27 11:40:19;;;;;;;;;;;17.80;92.60;;;;;;5050853;28;19912;-79
2023/03/27 11:42:45;;;;;;;;;;;17.50;92.70;;;;;;5050948;28;19909;-76
2023/03/27 11:45:16;;;;;;;;;;;17.30;92.90;;;;;;5050849;28;19908;-76
2023/03/27 11:47:47;;;;;;;;;;;17.10;92.80;;;;;;5052126;28;19987;-77
2023/03/27 11:50:37;;;;;;;;;;;16.90;92.70;;;;;;5049266;28;19913;-77
2023/03/27 11:53:06;;;;;;;;;;;16.70;92.60;;;;;;5047542;28;19920;-77
2023/03/27 11:55:40;;;;;;;;;;;16.30;92.50;;;;;;5043485;28;19995;-77
2023/03/27 11:58:14;;;;;;;;;;;16.00;92.60;;;;;;5049097;28;19970;-76
2023/03/27 12:00:48;;;;;;;;;;;15.60;92.70;;;;;;5041293;28;19905;-77
2023/03/27 12:03:24;;;;;;;;;;;15.50;92.90;;;;;;5031117;28;19917;-77
2023/03/27 12:05:51;;;;;;;;;;;15.40;92.90;;;;;;5032580;28;19912;-77
2023/03/27 12:08:29;;;;;;;;;;;15.40;92.80;;;;;;5030966;28;19905;-77
2023/03/27 12:10:56;;;;;;;;;;;15.40;92.60;;;;;;5031082;28;19994;-76
2023/03/27 12:13:27;;;;;;;;;;;15.30;92.50;;;;;;5030237;28;19905;-76
2023/03/27 12:16:10;;;;;;;;;;;15.40;92.40;;;;;;5032036;28;19913;-77
2023/03/27 12:18:44;;;;;;;;;;;15.40;92.10;;;;;;5032175;28;19905;-76
2023/03/27 12:21:13;;;;;;;;;;;15.20;92.00;;;;;;5030561;28;20329;-76
2023/03/27 12:23:57;;;;;;;;;;;15.00;92.00;;;;;;5029779;28;19905;-76
2023/03/27 12:26:32;;;;;;;;;;;14.90;91.90;;;;;;5030712;28;19909;-76
2023/03/27 12:28:58;;;;;;;;;;;14.70;92.00;;;;;;5034452;28;19905;-77
2023/03/27 12:31:26;;;;;;;;;;;14.60;92.20;;;;;;5052083;28;20041;-75
2023/03/27 12:33:52;;;;;;;;;;;14.60;92.60;;;;;;5051825;28;19947;-74
2023/03/27 12:36:19;;;;;;;;;;;15.00;93.00;;;;;;5051742;28;19944;-77
2023/03/27 12:38:45;;;;;;;;;;;15.30;92.80;;;;;;5051669;28;19911;-78
2023/03/27 12:41:18;;;;;;;;;;;15.50;92.50;;;;;;5051510;28;20349;-74
2023/03/27 12:43:44;;;;;;;;;;;15.40;92.30;;;;;;5050406;28;20042;-76
2023/03/27 12:46:14;;;;;;;;;;;15.20;92.30;;;;;;5050360;28;19941;-77
2023/03/27 12:48:58;;;;;;;;;;;15.10;92.50;;;;;;5051182;28;19931;-78
2023/03/27 12:51:46;;;;;;;;;;;14.90;92.70;;;;;;5051677;28;20550;-74
2023/03/27 12:54:22;;;;;;;;;;;14.60;92.50;;;;;;5051475;28;19955;-76
2023/03/27 12:56:57;;;;;;;;;;;14.50;92.70;;;;;;5050251;28;20280;-76
2023/03/27 12:59:25;;;;;;;;;;;14.40;92.50;;;;;;5051131;28;19915;-76
2023/03/27 13:02:02;;;;;;;;;;;14.40;92.50;;;;;;5050688;28;19905;-78
2023/03/27 13:04:45;;;;;;;;;;;14.30;92.40;;;;;;5051456;28;19943;-78
2023/03/27 13:07:20;;;;;;;;;;;14.30;92.40;;;;;;5051030;28;19905;-76
2023/03/27 13:09:58;;;;;;;;;;;14.00;92.20;;;;;;5049812;28;19905;-77
2023/03/27 13:12:23;;;;;;;;;;;13.80;92.30;;;;;;5049914;28;20382;-75
2023/03/27 13:15:01;;;;;;;;;;;13.60;92.40;;;;;;5049530;28;19905;-74
2023/03/27 13:17:34;;;;;;;;;;;13.60;92.50;;;;;;5051000;28;19908;-76
2023/03/27 13:20:15;;;;;;;;;;;13.70;92.50;;;;;;5050586;28;19909;-75
2023/03/27 13:22:59;;;;;;;;;;;13.80;92.30;;;;;;5050839;28;19911;-75
2023/03/27 13:25:37;;;;;;;;;;;13.80;92.20;;;;;;5049443;28;19905;-76
2023/03/27 13:28:07;;;;;;;;;;;13.90;92.30;;;;;;5049186;28;20420;-75
2023/03/27 13:30:38;;;;;;;;;;;14.00;92.10;;;;;;5050550;28;19912;-76
2023/03/27 13:33:23;;;;;;;;;;;14.10;92.10;;;;;;5050651;28;19979;-77
2023/03/27 13:35:51;;;;;;;;;;;14.20;92.10;;;;;;5050833;28;19974;-75
2023/03/27 13:38:16;;;;;;;;;;;14.40;92.00;;;;;;5048885;28;19940;-75
2023/03/27 13:40:44;;;;;;;;;;;14.40;91.90;;;;;;5048808;28;19943;-76
2023/03/27 13:43:20;;;;;;;;;;;14.40;91.80;;;;;;5049181;28;19919;-76
2023/03/27 13:45:47;;;;;;;;;;;14.30;91.80;;;;;;5050685;28;19904;-76
2023/03/27 13:48:19;;;;;;;;;;;14.30;91.80;;;;;;5048885;28;19908;-76
2023/03/27 13:51:00;;;;;;;;;;;14.30;91.90;;;;;;5050078;28;20352;-75
2023/03/27 13:53:43;;;;;;;;;;;14.30;92.00;;;;;;5050321;28;19905;-75
2023/03/27 13:56:47;;;;;;;;;;;14.40;92.00;;;;;;5049918;28;19936;-76
2023/03/27 13:59:22;;;;;;;;;;;14.50;92.00;;;;;;5027601;28;19909;-77
2023/03/27 14:01:56;;;;;;;;;;;14.50;91.90;;;;;;5027927;28;20424;-76
2023/03/27 14:04:40;;;;;;;;;;;14.40;91.70;;;;;;5031991;28;19971;-78
2023/03/27 14:07:18;;;;;;;;;;;14.30;91.70;;;;;;5050293;28;19912;-77
2023/03/27 14:09:55;;;;;;;;;;;14.10;91.70;;;;;;5048938;28;19999;-77
2023/03/27 14:12:40;;;;;;;;;;;13.90;91.70;;;;;;5049768;28;20001;-76
2023/03/27 14:15:06;;;;;;;;;;;13.80;91.70;;;;;;5049574;28;19966;-76
2023/03/27 14:17:31;;;;;;;;;;;13.70;91.90;;;;;;5048517;28;20011;-76
2023/03/27 14:20:10;;;;;;;;;;;13.80;92.10;;;;;;5048147;28;20360;-74
2023/03/27 14:22:46;;;;;;;;;;;13.90;92.10;;;;;;5049342;28;19955;-76
2023/03/27 14:25:13;;;;;;;;;;;14.10;92.00;;;;;;5049322;28;19905;-76
2023/03/27 14:27:41;;;;;;;;;;;14.20;91.90;;;;;;5049399;28;19915;-79
2023/03/27 14:30:07;;;;;;;;;;;14.40;91.80;;;;;;5047608;28;19958;-76
2023/03/27 14:32:34;;;;;;;;;;;14.40;91.70;;;;;;5047924;28;19991;-77
2023/03/27 14:35:06;;;;;;;;;;;14.40;91.60;;;;;;5049547;28;19983;-75
2023/03/27 14:37:34;;;;;;;;;;;14.50;91.70;;;;;;5047697;28;19917;-75